Ocean King D — V7TV6 — position and weather

sailwx.info

Track history (hours):
 
Tides and Currents Weather Stations Pressure Air Temp Water Temp Dewpoint Dewpoint Depression Visibility Wind Speed Wind Dir Waves Ship Positions

Ocean King D

Last reported at 2015-Mar-21 23:23 UTC. Time now 2015-Mar-28 11:09 UTC.
Position N 36°33' E 026°41'.

Length 190 m; draft 9.9 m.

Type: Cargo ship. MMSI: 538003892.

Date/timePositionNaut miles runAvg speedWind from/ knotsBaromVisibWave heightAir tempDewpointWater temp
2015-Mar-21 23:23N 36°33' E 026°41'3512.4
2015-Mar-21 20:33N 36°59' E 026°11'2812.7
2015-Mar-21 18:22N 37°23' E 025°55'250 6.7
2015-Mar-20 05:14N 40°55' E 028°48'912.7
2015-Mar-20 04:33N 40°58' E 028°59'31611.3
2015-Mar-19 00:29N 43°37' E 035°08'11813.1
2015-Mar-18 15:29N 44°30' E 037°35'1412.7
2015-Mar-18 14:25N 44°38' E 037°50'6 5.6
2015-Mar-18 13:24N 44°44' E 037°48'0 0.2
2015-Mar-18 12:08N 44°43' E 037°48'0 0.0
2015-Mar-18 11:25N 44°43' E 037°48'0 0.0
2015-Mar-18 10:20N 44°43' E 037°48'0 0.0
2015-Mar-18 08:27N 44°43' E 037°48'0 0.0
2015-Mar-18 07:27N 44°43' E 037°48'0 0.0
2015-Mar-17 05:06N 44°43' E 037°48'0 0.0
2015-Mar-17 03:10N 44°43' E 037°48'0 0.0
2015-Mar-17 02:09N 44°43' E 037°48'0 0.0
2015-Mar-16 17:31N 44°43' E 037°48'0 0.0
2015-Mar-16 16:33N 44°43' E 037°48'0 0.0
2015-Mar-16 09:24N 44°43' E 037°48'0 0.0
2015-Mar-16 03:18N 44°43' E 037°48'0 0.0
2015-Mar-15 22:18N 44°43' E 037°48'0 0.0
2015-Mar-15 16:14N 44°43' E 037°48'0 0.0
2015-Mar-15 12:22N 44°43' E 037°48'0 0.0
2015-Mar-15 09:27N 44°43' E 037°48'0 0.0
2015-Mar-14 21:18N 44°43' E 037°48'0 0.0
2015-Mar-14 19:18N 44°43' E 037°48'0 0.0
2015-Mar-14 04:14N 44°43' E 037°48'0 0.0
2015-Mar-13 11:05N 44°43' E 037°48'2 0.1
2015-Mar-12 16:18N 44°41' E 037°50'11 8.7
2015-Mar-12 15:05N 44°31' E 037°50'8 2.5
2015-Mar-12 12:03N 44°33' E 037°40'1 1.0
2015-Mar-12 11:10N 44°33' E 037°39'1 0.5
2015-Mar-12 10:12N 44°33' E 037°38'2 0.9
2015-Mar-12 08:18N 44°31' E 037°39'8 6.7
2015-Mar-12 07:04N 44°25' E 037°31'  
Track history (hours):
 
Tides and Currents Weather Stations Pressure Air Temp Water Temp Dewpoint Dewpoint Depression Visibility Wind Speed Wind Dir Waves Ship Positions

Ocean King D

Last reported at 2015-Mar-21 23:23 UTC. Time now 2015-Mar-28 11:09 UTC.
Position N 36°33' E 026°41'.

Length 190 m; draft 9.9 m.

Type: Cargo ship. MMSI: 538003892.

Date/timePositionNaut miles runAvg speedWind from/ knotsBaromVisibWave heightAir tempDewpointWater temp
2015-Mar-21 23:23N 36°33' E 026°41'3512.4
2015-Mar-21 20:33N 36°59' E 026°11'2812.7
2015-Mar-21 18:22N 37°23' E 025°55'250 6.7
2015-Mar-20 05:14N 40°55' E 028°48'912.7
2015-Mar-20 04:33N 40°58' E 028°59'31611.3
2015-Mar-19 00:29N 43°37' E 035°08'11813.1
2015-Mar-18 15:29N 44°30' E 037°35'1412.7
2015-Mar-18 14:25N 44°38' E 037°50'6 5.6
2015-Mar-18 13:24N 44°44' E 037°48'0 0.2
2015-Mar-18 12:08N 44°43' E 037°48'0 0.0
2015-Mar-18 11:25N 44°43' E 037°48'0 0.0
2015-Mar-18 10:20N 44°43' E 037°48'0 0.0
2015-Mar-18 08:27N 44°43' E 037°48'0 0.0
2015-Mar-18 07:27N 44°43' E 037°48'0 0.0
2015-Mar-17 05:06N 44°43' E 037°48'0 0.0
2015-Mar-17 03:10N 44°43' E 037°48'0 0.0
2015-Mar-17 02:09N 44°43' E 037°48'0 0.0
2015-Mar-16 17:31N 44°43' E 037°48'0 0.0
2015-Mar-16 16:33N 44°43' E 037°48'0 0.0
2015-Mar-16 09:24N 44°43' E 037°48'0 0.0
2015-Mar-16 03:18N 44°43' E 037°48'0 0.0
2015-Mar-15 22:18N 44°43' E 037°48'0 0.0
2015-Mar-15 16:14N 44°43' E 037°48'0 0.0
2015-Mar-15 12:22N 44°43' E 037°48'0 0.0
2015-Mar-15 09:27N 44°43' E 037°48'0 0.0
2015-Mar-14 21:18N 44°43' E 037°48'0 0.0
2015-Mar-14 19:18N 44°43' E 037°48'0 0.0
2015-Mar-14 04:14N 44°43' E 037°48'0 0.0
2015-Mar-13 11:05N 44°43' E 037°48'2 0.1
2015-Mar-12 16:18N 44°41' E 037°50'11 8.7
2015-Mar-12 15:05N 44°31' E 037°50'8 2.5
2015-Mar-12 12:03N 44°33' E 037°40'1 1.0
2015-Mar-12 11:10N 44°33' E 037°39'1 0.5
2015-Mar-12 10:12N 44°33' E 037°38'2 0.9
2015-Mar-12 08:18N 44°31' E 037°39'8 6.7
2015-Mar-12 07:04N 44°25' E 037°31'  

Dump ship's entire track history